createdAt,value
2023-03-16T00:02:20.070Z,0.90
2023-03-16T00:04:48.573Z,0.70
2023-03-16T00:07:17.088Z,0.90
2023-03-16T00:09:45.467Z,0.70
2023-03-16T00:12:17.091Z,0.60
2023-03-16T00:14:47.540Z,0.60
2023-03-16T00:17:20.815Z,0.70
2023-03-16T00:19:55.581Z,0.40
2023-03-16T00:22:29.818Z,0.60
2023-03-16T00:24:58.595Z,0.80
2023-03-16T00:27:27.041Z,0.60
2023-03-16T00:29:58.116Z,0.50
2023-03-16T00:32:33.258Z,0.50
2023-03-16T00:35:02.805Z,0.70
2023-03-16T00:37:37.096Z,0.70
2023-03-16T00:40:07.993Z,0.60
2023-03-16T00:45:05.995Z,0.60
2023-03-16T00:47:36.468Z,0.60
2023-03-16T00:50:05.223Z,0.60
2023-03-16T00:52:35.489Z,0.40
2023-03-16T00:55:04.966Z,0.50
2023-03-16T00:57:33.658Z,0.60
2023-03-16T01:00:12.460Z,0.60
2023-03-16T01:02:41.106Z,0.70
2023-03-16T01:05:09.792Z,0.50
2023-03-16T01:07:39.470Z,0.50
2023-03-16T01:10:09.811Z,0.60
2023-03-16T01:12:38.231Z,0.60
2023-03-16T01:15:07.395Z,0.70
2023-03-16T01:17:35.922Z,0.70
2023-03-16T01:20:08.414Z,0.40
2023-03-16T01:22:36.779Z,0.60
2023-03-16T01:25:05.962Z,0.50
2023-03-16T01:27:34.364Z,0.70
2023-03-16T01:30:02.750Z,0.60
2023-03-16T01:32:31.594Z,0.40
2023-03-16T01:35:00.222Z,0.80
2023-03-16T01:37:28.786Z,0.60
2023-03-16T01:40:00.834Z,0.50
2023-03-16T01:42:29.256Z,0.50
2023-03-16T01:45:05.726Z,0.40
2023-03-16T01:47:40.005Z,0.60
2023-03-16T01:50:14.527Z,0.70
2023-03-16T01:52:43.785Z,0.70
2023-03-16T01:55:15.887Z,0.40
2023-03-16T01:57:47.265Z,0.40
2023-03-16T02:00:20.009Z,0.50
2023-03-16T02:03:15.543Z,0.50
2023-03-16T02:05:56.039Z,0.40
2023-03-16T02:08:25.621Z,0.50
2023-03-16T02:10:56.755Z,0.60
2023-03-16T02:13:29.771Z,0.50
2023-03-16T02:15:58.644Z,0.60
2023-03-16T02:18:27.310Z,0.40
2023-03-16T02:21:42.973Z,0.50
2023-03-16T02:24:11.639Z,0.30
2023-03-16T02:26:53.794Z,0.40
2023-03-16T02:30:02.144Z,0.60
2023-03-16T02:32:36.579Z,0.50
2023-03-16T02:35:06.383Z,0.70
2023-03-16T02:37:34.723Z,0.50
2023-03-16T02:40:26.852Z,0.40
2023-03-16T02:43:05.239Z,0.70
2023-03-16T02:45:50.329Z,0.50
2023-03-16T02:48:28.704Z,0.40
2023-03-16T02:50:57.301Z,0.30
2023-03-16T02:53:27.724Z,0.30
2023-03-16T02:55:56.684Z,0.40
2023-03-16T02:58:25.484Z,0.40
2023-03-16T03:00:53.912Z,0.20
2023-03-16T03:03:22.213Z,0.30
2023-03-16T03:05:50.692Z,0.30
2023-03-16T03:08:21.789Z,0.30
2023-03-16T03:10:50.304Z,0.40
2023-03-16T03:13:18.647Z,0.30
2023-03-16T03:15:46.961Z,0.30
2023-03-16T03:18:15.417Z,0.20
2023-03-16T03:20:43.760Z,0.30
2023-03-16T03:23:12.100Z,0.30
2023-03-16T03:28:12.378Z,0.60
2023-03-16T03:30:41.932Z,0.60
2023-03-16T03:33:10.386Z,0.40
2023-03-16T03:35:38.809Z,0.50
2023-03-16T03:38:08.289Z,0.50
2023-03-16T03:40:36.958Z,0.30
2023-03-16T03:43:06.519Z,0.50
2023-03-16T03:45:37.945Z,0.10
2023-03-16T03:48:06.745Z,0.50
2023-03-16T03:50:35.266Z,0.40
2023-03-16T03:53:21.998Z,0.50
2023-03-16T03:56:09.054Z,0.30
2023-03-16T03:58:38.944Z,0.20
2023-03-16T04:01:07.544Z,0.40
2023-03-16T04:03:36.120Z,0.30
2023-03-16T04:06:07.284Z,0.20
2023-03-16T04:08:35.995Z,0.20
2023-03-16T04:11:04.964Z,0.30
2023-03-16T04:13:33.287Z,0.40
2023-03-16T04:16:02.850Z,0.40
2023-03-16T04:18:39.604Z,0.40
2023-03-16T04:21:12.881Z,0.40
2023-03-16T04:23:42.752Z,0.60
2023-03-16T04:26:11.302Z,0.60
2023-03-16T04:28:40.220Z,0.60
2023-03-16T04:31:11.128Z,0.50
2023-03-16T04:33:43.079Z,0.50
2023-03-16T04:36:12.174Z,0.40
2023-03-16T04:38:42.198Z,0.40
2023-03-16T04:41:11.591Z,0.50
2023-03-16T04:43:45.400Z,0.50
2023-03-16T04:46:19.613Z,0.70
2023-03-16T04:48:48.034Z,0.60
2023-03-16T04:51:16.883Z,0.70
2023-03-16T04:53:53.772Z,1.20
2023-03-16T04:56:30.801Z,0.80
2023-03-16T04:59:02.058Z,0.90
2023-03-16T05:01:33.148Z,0.90
2023-03-16T05:04:03.093Z,1.00
2023-03-16T05:06:32.877Z,0.60
2023-03-16T05:09:01.979Z,0.60
2023-03-16T05:11:30.924Z,0.80
2023-03-16T05:14:02.274Z,0.80
2023-03-16T05:16:31.924Z,0.80
2023-03-16T05:19:01.970Z,0.70
2023-03-16T05:21:32.310Z,0.90
2023-03-16T05:24:08.514Z,0.70
2023-03-16T05:26:37.056Z,1.00
2023-03-16T05:29:05.898Z,0.80
2023-03-16T05:31:34.447Z,0.50
2023-03-16T05:34:04.023Z,0.70
2023-03-16T05:36:32.570Z,0.70
2023-03-16T05:39:08.645Z,0.50
2023-03-16T05:41:39.729Z,0.70
2023-03-16T05:44:28.531Z,0.70
2023-03-16T05:47:20.975Z,0.70
2023-03-16T05:49:53.386Z,0.70
2023-03-16T05:52:26.204Z,0.70
2023-03-16T05:54:54.960Z,0.50
2023-03-16T05:57:23.905Z,0.60
2023-03-16T05:59:53.040Z,0.50
2023-03-16T06:02:21.786Z,1.00
2023-03-16T06:04:50.517Z,0.80
2023-03-16T06:07:19.042Z,0.80
2023-03-16T06:09:48.267Z,0.70
2023-03-16T06:12:17.360Z,0.50
2023-03-16T06:14:45.840Z,0.70
2023-03-16T06:17:15.063Z,0.70
2023-03-16T06:19:43.633Z,1.00
2023-03-16T06:22:12.077Z,0.70
2023-03-16T06:24:41.507Z,0.60
2023-03-16T06:27:30.066Z,1.00
2023-03-16T06:30:18.565Z,1.20
2023-03-16T06:32:47.119Z,0.80
2023-03-16T06:35:15.770Z,0.70
2023-03-16T06:37:49.077Z,0.90
2023-03-16T06:40:31.776Z,1.00
2023-03-16T06:43:00.747Z,0.90
2023-03-16T06:45:29.286Z,1.10
2023-03-16T06:47:57.811Z,1.10
2023-03-16T06:50:26.963Z,1.00
2023-03-16T06:52:55.477Z,1.20
2023-03-16T06:55:23.876Z,0.90
2023-03-16T06:57:52.310Z,0.90
2023-03-16T07:00:21.794Z,1.30
2023-03-16T07:05:16.708Z,0.90
2023-03-16T07:07:48.343Z,1.00
2023-03-16T07:12:46.689Z,1.20
2023-03-16T07:15:15.362Z,0.70
2023-03-16T07:17:43.911Z,3.40
2023-03-16T07:20:14.130Z,3.00
2023-03-16T07:22:44.125Z,1.40
2023-03-16T07:25:14.525Z,1.60
2023-03-16T07:27:48.441Z,1.00
2023-03-16T07:30:23.010Z,1.00
2023-03-16T07:32:52.797Z,1.00
2023-03-16T07:35:24.516Z,1.50
2023-03-16T07:37:52.954Z,1.00
2023-03-16T07:40:22.254Z,1.20
2023-03-16T07:42:50.890Z,1.30
2023-03-16T07:45:33.207Z,1.10
2023-03-16T07:48:02.052Z,0.80
2023-03-16T07:50:44.544Z,1.10
2023-03-16T07:53:16.527Z,1.10
2023-03-16T07:55:46.887Z,1.10
2023-03-16T07:58:15.357Z,1.10
2023-03-16T08:00:44.039Z,1.00
2023-03-16T08:03:12.467Z,0.90
2023-03-16T08:05:41.859Z,1.00
2023-03-16T08:08:16.132Z,0.90
2023-03-16T08:10:47.814Z,1.00
2023-03-16T08:13:19.605Z,1.10
2023-03-16T08:15:56.109Z,0.90
2023-03-16T08:18:32.493Z,1.10
2023-03-16T08:21:00.964Z,0.90
2023-03-16T08:23:30.824Z,0.80
2023-03-16T08:25:59.224Z,0.80
2023-03-16T08:28:28.690Z,1.10
2023-03-16T08:30:58.702Z,1.20
2023-03-16T08:33:48.924Z,1.10
2023-03-16T08:36:21.240Z,1.10
2023-03-16T08:39:06.574Z,1.00
2023-03-16T08:41:40.925Z,0.90
2023-03-16T08:44:13.988Z,1.00
2023-03-16T08:46:42.738Z,1.00
2023-03-16T08:49:13.176Z,1.10
2023-03-16T08:51:44.812Z,0.90
2023-03-16T08:54:13.597Z,0.90
2023-03-16T08:56:42.743Z,0.80
2023-03-16T08:59:23.702Z,0.80
2023-03-16T09:01:58.056Z,1.10
2023-03-16T09:04:28.699Z,1.00
2023-03-16T09:07:10.213Z,0.90
2023-03-16T09:09:39.835Z,0.80
2023-03-16T09:12:08.834Z,1.10
2023-03-16T09:14:38.754Z,1.10
2023-03-16T09:17:12.070Z,1.10
2023-03-16T09:19:51.745Z,1.20
2023-03-16T09:22:23.382Z,1.10
2023-03-16T09:24:51.881Z,1.10
2023-03-16T09:27:20.927Z,1.00
2023-03-16T09:29:51.173Z,1.00
2023-03-16T09:32:19.832Z,1.00
2023-03-16T09:34:48.622Z,1.40
2023-03-16T09:37:17.152Z,1.70
2023-03-16T09:39:45.999Z,1.30
2023-03-16T09:42:18.298Z,1.40
2023-03-16T09:44:49.700Z,1.10
2023-03-16T09:47:29.809Z,1.20
2023-03-16T09:50:03.162Z,1.20
2023-03-16T09:52:57.900Z,1.20
2023-03-16T09:55:36.726Z,0.90
2023-03-16T09:58:14.122Z,1.10
2023-03-16T10:01:13.604Z,1.20
2023-03-16T10:04:08.818Z,1.10
2023-03-16T10:06:47.120Z,1.00
2023-03-16T10:09:54.173Z,1.40
2023-03-16T10:12:30.131Z,1.30
2023-03-16T10:15:13.641Z,1.50
2023-03-16T10:18:07.401Z,1.40
2023-03-16T10:20:36.833Z,1.60
2023-03-16T10:23:24.495Z,1.20
2023-03-16T10:26:11.049Z,1.40
2023-03-16T10:28:49.249Z,1.40
2023-03-16T10:31:35.987Z,1.20
2023-03-16T10:34:06.548Z,1.40
2023-03-16T10:36:39.762Z,1.20
2023-03-16T10:39:21.366Z,1.20
2023-03-16T10:41:58.023Z,1.30
2023-03-16T10:44:28.810Z,1.30
2023-03-16T10:49:36.980Z,1.40
2023-03-16T10:52:14.918Z,1.40
2023-03-16T10:55:00.016Z,1.50
2023-03-16T10:57:34.796Z,1.80
2023-03-16T11:00:23.452Z,1.70
2023-03-16T11:02:55.361Z,2.00
2023-03-16T11:05:34.261Z,1.50
2023-03-16T11:08:16.753Z,1.70
2023-03-16T11:10:56.250Z,1.90
2023-03-16T11:13:38.889Z,2.10
2023-03-16T11:16:26.267Z,1.80
2023-03-16T11:19:05.092Z,2.20
2023-03-16T11:21:44.975Z,2.10
2023-03-16T11:24:42.991Z,2.20
2023-03-16T11:27:40.892Z,2.00
2023-03-16T11:30:46.787Z,2.40
2023-03-16T11:33:15.874Z,2.70
2023-03-16T11:36:22.269Z,2.20
2023-03-16T11:39:16.473Z,2.30
2023-03-16T11:42:14.706Z,2.30
2023-03-16T11:44:59.729Z,2.30
2023-03-16T11:47:37.334Z,2.30
2023-03-16T11:50:12.534Z,2.20
2023-03-16T11:52:53.400Z,2.60
2023-03-16T11:55:29.114Z,2.50
2023-03-16T11:58:32.786Z,2.40
2023-03-16T12:01:30.726Z,2.80
2023-03-16T12:04:08.251Z,8.70
2023-03-16T12:07:14.185Z,2.70
2023-03-16T12:10:07.201Z,2.50
2023-03-16T12:13:00.743Z,2.30
2023-03-16T12:15:38.755Z,2.70
2023-03-16T12:18:39.968Z,2.50
2023-03-16T12:24:18.717Z,2.50
2023-03-16T12:26:49.806Z,2.50
2023-03-16T12:29:42.920Z,2.50
2023-03-16T12:32:56.122Z,2.70
2023-03-16T12:35:49.039Z,2.50
2023-03-16T12:38:28.022Z,2.60
2023-03-16T12:41:12.512Z,2.90
2023-03-16T12:44:26.782Z,2.30
2023-03-16T12:51:03.616Z,2.30
2023-03-16T12:53:55.048Z,2.80
2023-03-16T12:56:33.191Z,3.30
2023-03-16T12:59:06.097Z,2.80
2023-03-16T13:01:42.772Z,2.30
2023-03-16T13:04:16.423Z,2.70
2023-03-16T13:06:52.513Z,2.50
2023-03-16T13:09:28.351Z,2.60
2023-03-16T13:11:57.264Z,2.70
2023-03-16T13:14:44.773Z,2.30
2023-03-16T13:17:16.384Z,2.70
2023-03-16T13:23:54.707Z,2.80
2023-03-16T13:26:35.759Z,3.00
2023-03-16T13:31:42.296Z,3.40
2023-03-16T13:34:24.476Z,3.70
2023-03-16T13:36:57.970Z,9.60
2023-03-16T13:39:29.424Z,3.20
2023-03-16T13:42:00.801Z,2.80
2023-03-16T13:44:30.468Z,2.40
2023-03-16T13:47:05.324Z,3.10
2023-03-16T13:49:34.910Z,3.00
2023-03-16T13:52:05.705Z,3.00
2023-03-16T13:57:11.647Z,2.70
2023-03-16T13:59:43.745Z,3.00
2023-03-16T14:02:19.526Z,3.60
2023-03-16T14:04:48.624Z,3.20
2023-03-16T14:07:19.962Z,2.90
2023-03-16T14:09:49.984Z,3.40
2023-03-16T14:12:20.295Z,3.50
2023-03-16T14:14:54.963Z,3.50
2023-03-16T14:17:24.674Z,3.00
2023-03-16T14:19:59.862Z,4.00
2023-03-16T14:22:37.906Z,3.40
2023-03-16T14:25:07.486Z,3.20
2023-03-16T14:27:47.091Z,3.90
2023-03-16T14:34:29.440Z,4.00
2023-03-16T14:37:17.918Z,4.20
2023-03-16T14:39:58.266Z,3.70
2023-03-16T14:42:31.422Z,3.60
2023-03-16T14:45:02.470Z,3.60
2023-03-16T14:47:35.666Z,5.00
2023-03-16T14:50:09.141Z,5.20
2023-03-16T14:52:37.672Z,4.70
2023-03-16T14:55:13.453Z,4.80
2023-03-16T14:57:43.070Z,4.60
2023-03-16T15:00:15.578Z,3.80
2023-03-16T15:02:50.553Z,4.10
2023-03-16T15:05:24.477Z,4.40
2023-03-16T15:07:55.842Z,4.60
2023-03-16T15:10:28.155Z,4.20
2023-03-16T15:13:06.274Z,4.00
2023-03-16T15:15:34.701Z,5.30
2023-03-16T15:18:04.588Z,4.60
2023-03-16T15:20:39.591Z,4.40
2023-03-16T15:23:13.415Z,4.80
2023-03-16T15:25:44.904Z,4.10
2023-03-16T15:28:19.140Z,4.80
2023-03-16T15:30:53.867Z,4.10
2023-03-16T15:33:23.149Z,4.80
2023-03-16T15:35:55.849Z,4.10
2023-03-16T15:38:31.594Z,5.20
2023-03-16T15:41:00.515Z,5.00
2023-03-16T15:43:30.930Z,5.10
2023-03-16T15:46:03.732Z,5.00
2023-03-16T15:48:33.215Z,4.30
2023-03-16T15:51:11.707Z,4.80
2023-03-16T15:53:44.110Z,5.50
2023-03-16T15:56:16.822Z,5.80
2023-03-16T15:58:47.093Z,5.10
2023-03-16T16:01:23.235Z,5.00
2023-03-16T16:03:54.171Z,4.50
2023-03-16T16:08:51.112Z,4.90
2023-03-16T16:11:26.617Z,5.50
2023-03-16T16:13:56.881Z,6.00
2023-03-16T16:16:29.171Z,4.90
2023-03-16T16:18:58.358Z,6.40
2023-03-16T16:21:32.743Z,5.60
2023-03-16T16:24:03.158Z,5.70
2023-03-16T16:26:55.250Z,6.00
2023-03-16T16:29:33.952Z,4.90
2023-03-16T16:32:02.586Z,4.30
2023-03-16T16:34:31.260Z,5.50
2023-03-16T16:36:59.667Z,5.50
2023-03-16T16:39:28.101Z,5.30
2023-03-16T16:41:57.129Z,4.90
2023-03-16T16:44:33.237Z,6.50
2023-03-16T16:47:04.074Z,4.30
2023-03-16T16:49:35.335Z,6.20
2023-03-16T16:52:04.004Z,5.50
2023-03-16T16:54:32.506Z,5.40
2023-03-16T16:57:01.916Z,6.00
2023-03-16T16:59:33.360Z,5.00
2023-03-16T17:02:13.111Z,5.40
2023-03-16T17:04:41.523Z,5.90
2023-03-16T17:07:11.896Z,5.20
2023-03-16T17:09:40.224Z,4.20
2023-03-16T17:12:17.663Z,5.10
2023-03-16T17:14:46.353Z,4.00
2023-03-16T17:17:18.038Z,4.70
2023-03-16T17:19:48.512Z,5.40
2023-03-16T17:22:25.929Z,5.50
2023-03-16T17:24:55.467Z,4.60
2023-03-16T17:27:29.798Z,4.50
2023-03-16T17:29:59.010Z,4.20
2023-03-16T17:32:27.463Z,4.00
2023-03-16T17:34:55.916Z,5.20
2023-03-16T17:37:24.353Z,4.90
2023-03-16T17:39:55.620Z,4.60
2023-03-16T17:42:26.723Z,4.90
2023-03-16T17:44:55.189Z,4.40
2023-03-16T17:47:26.749Z,4.80
2023-03-16T17:49:57.212Z,4.80
2023-03-16T17:52:29.451Z,4.40
2023-03-16T17:54:57.884Z,5.90
2023-03-16T17:57:32.146Z,5.40
2023-03-16T18:00:02.701Z,4.90
2023-03-16T18:02:34.961Z,4.60
2023-03-16T18:05:05.781Z,6.00
2023-03-16T18:07:34.218Z,5.30
2023-03-16T18:10:02.655Z,5.20
2023-03-16T18:12:31.475Z,5.10
2023-03-16T18:14:59.860Z,5.00
2023-03-16T18:17:31.123Z,4.40
2023-03-16T18:19:59.934Z,4.20
2023-03-16T18:22:29.033Z,4.50
2023-03-16T18:24:57.323Z,4.50
2023-03-16T18:27:25.753Z,4.90
2023-03-16T18:29:54.285Z,4.40
2023-03-16T18:32:25.959Z,4.10
2023-03-16T18:34:55.057Z,4.20
2023-03-16T18:37:27.320Z,4.00
2023-03-16T18:39:55.728Z,3.40
2023-03-16T18:42:29.460Z,4.20
2023-03-16T18:44:57.815Z,3.40
2023-03-16T18:47:31.698Z,3.40
2023-03-16T18:50:00.344Z,3.40
2023-03-16T18:52:32.957Z,4.10
2023-03-16T18:55:01.664Z,3.50
2023-03-16T18:57:32.036Z,4.90
2023-03-16T19:00:00.371Z,4.10
2023-03-16T19:02:37.585Z,4.50
2023-03-16T19:05:19.796Z,4.20
2023-03-16T19:07:52.062Z,3.90
2023-03-16T19:10:22.729Z,4.20
2023-03-16T19:12:52.755Z,4.40
2023-03-16T19:15:28.977Z,5.00
2023-03-16T19:17:58.423Z,5.90
2023-03-16T19:20:33.166Z,5.30
2023-03-16T19:23:33.386Z,4.60
2023-03-16T19:26:01.818Z,4.60
2023-03-16T19:28:37.329Z,4.20
2023-03-16T19:31:20.239Z,5.20
2023-03-16T19:33:49.744Z,5.50
2023-03-16T19:36:30.724Z,5.30
2023-03-16T19:41:31.004Z,4.70
2023-03-16T19:44:16.205Z,4.60
2023-03-16T19:46:45.034Z,4.70
2023-03-16T19:49:17.901Z,6.30
2023-03-16T19:51:47.619Z,5.10
2023-03-16T19:54:27.055Z,5.30
2023-03-16T19:56:58.442Z,6.50
2023-03-16T19:59:31.556Z,5.00
2023-03-16T20:02:01.096Z,4.80
2023-03-16T20:04:30.504Z,5.70
2023-03-16T20:06:59.005Z,6.30
2023-03-16T20:09:27.678Z,6.10
2023-03-16T20:11:56.338Z,6.20
2023-03-16T20:14:32.105Z,5.20
2023-03-16T20:17:01.359Z,5.00
2023-03-16T20:19:29.845Z,4.90
2023-03-16T20:21:58.217Z,5.20
2023-03-16T20:24:28.994Z,5.30
2023-03-16T20:26:57.449Z,4.80
2023-03-16T20:29:32.258Z,4.60
2023-03-16T20:32:01.473Z,5.60
2023-03-16T20:34:32.312Z,4.50
2023-03-16T20:37:00.700Z,4.70
2023-03-16T20:39:29.274Z,4.30
2023-03-16T20:41:57.577Z,5.70
2023-03-16T20:44:26.821Z,5.10
2023-03-16T20:46:55.297Z,4.60
2023-03-16T20:49:25.415Z,4.70
2023-03-16T20:51:54.385Z,4.30
2023-03-16T20:54:23.029Z,4.10
2023-03-16T20:56:51.727Z,4.90
2023-03-16T20:59:26.654Z,4.60
2023-03-16T21:01:55.944Z,4.70
2023-03-16T21:04:27.787Z,5.00
2023-03-16T21:06:57.020Z,4.10
2023-03-16T21:09:25.961Z,4.30
2023-03-16T21:11:54.418Z,4.70
2023-03-16T21:14:24.293Z,4.30
2023-03-16T21:16:54.056Z,4.90
2023-03-16T21:19:23.831Z,4.00
2023-03-16T21:21:52.484Z,4.50
2023-03-16T21:24:21.331Z,4.10
2023-03-16T21:26:49.818Z,4.00
2023-03-16T21:29:24.279Z,4.20
2023-03-16T21:31:52.856Z,4.90
2023-03-16T21:34:28.565Z,4.30
2023-03-16T21:36:56.967Z,4.20
2023-03-16T21:39:26.502Z,4.30
2023-03-16T21:41:55.687Z,4.50
2023-03-16T21:44:24.058Z,4.10
2023-03-16T21:46:52.441Z,4.70
2023-03-16T21:49:21.079Z,4.20
2023-03-16T21:51:51.416Z,4.00
2023-03-16T21:54:19.720Z,3.90
2023-03-16T21:56:48.116Z,4.30
2023-03-16T21:59:18.865Z,4.30
2023-03-16T22:02:01.677Z,4.10
2023-03-16T22:04:30.778Z,4.40
2023-03-16T22:07:01.577Z,4.80
2023-03-16T22:09:33.023Z,3.90
2023-03-16T22:12:01.405Z,4.30
2023-03-16T22:14:29.705Z,4.10
2023-03-16T22:16:58.572Z,4.60
2023-03-16T22:19:29.653Z,4.40
2023-03-16T22:21:58.530Z,4.60
2023-03-16T22:24:30.235Z,4.20
2023-03-16T22:26:59.501Z,4.20
2023-03-16T22:29:30.564Z,3.70
2023-03-16T22:32:04.537Z,4.10
2023-03-16T22:34:46.468Z,4.50
2023-03-16T22:37:22.100Z,4.20
2023-03-16T22:39:51.425Z,4.20
2023-03-16T22:42:19.673Z,3.80
2023-03-16T22:44:48.024Z,4.40
2023-03-16T22:47:23.301Z,4.10
2023-03-16T22:49:51.923Z,4.40
2023-03-16T22:52:25.881Z,4.00
2023-03-16T22:54:54.428Z,4.30
2023-03-16T22:57:23.208Z,4.30
2023-03-16T22:59:53.237Z,3.90
2023-03-16T23:02:26.446Z,5.00
2023-03-16T23:04:56.143Z,4.00
2023-03-16T23:07:24.574Z,3.90
2023-03-16T23:09:52.911Z,4.20
2023-03-16T23:12:22.433Z,3.80
2023-03-16T23:14:50.781Z,4.30
2023-03-16T23:17:22.502Z,4.30
2023-03-16T23:19:52.118Z,4.00
2023-03-16T23:22:20.411Z,3.70
2023-03-16T23:24:48.700Z,4.00
2023-03-16T23:27:19.880Z,4.10
2023-03-16T23:29:48.961Z,3.30
2023-03-16T23:32:17.686Z,4.30
2023-03-16T23:34:46.196Z,3.50
2023-03-16T23:37:14.520Z,3.90
2023-03-16T23:39:43.791Z,4.00
2023-03-16T23:42:12.828Z,4.00
2023-03-16T23:44:41.199Z,4.20
2023-03-16T23:47:11.153Z,4.40
2023-03-16T23:49:42.705Z,4.30
2023-03-16T23:52:13.623Z,4.00
2023-03-16T23:57:11.001Z,4.20
2023-03-16T23:59:39.391Z,4.20
